Pleasant Mills, Indiana
Current Conditions -  °F | °C
As of 12:54 AM on Thursday 29 Jan 2015 (Local Time) from KFWA Reporting Station
Overcast Overcast  
Wind Chill: 20°   Ceiling: 17000
Heat Index: 30°   Visibility: 10mi
Dew Point: 21°   Wind: 13mph
Humidity: 69%   Direction: 150°SSE
Pressure: 30"   Gusts: NA
Location:  40.78°N, 84.84°W
Report Text: KFWA 290554Z 15011KT 10SM BKN170 OVC220 M01/M06 A3000 RMK AO2 SLP170 4/002 T10111061 11011 21039 56027
Loading
Personal Weather Stations






























Interactive Weather Map New forecast layout! Learn more

10-Day Weather Forecast

Advertisements
Track Severe Weather on mobile